createdAt,value
2016-11-11T00:00:45.229Z,-6.39
2016-11-11T00:01:45.188Z,-6.39
2016-11-11T00:02:45.187Z,-6.42
2016-11-11T00:03:45.162Z,-6.41
2016-11-11T00:04:45.143Z,-6.38
2016-11-11T00:05:45.103Z,-6.39
2016-11-11T00:06:45.054Z,-6.38
2016-11-11T00:07:45.063Z,-6.39
2016-11-11T00:08:45.031Z,-6.34
2016-11-11T00:09:45.007Z,-6.39
2016-11-11T00:10:44.978Z,-6.42
2016-11-11T00:11:44.959Z,-6.35
2016-11-11T00:12:44.940Z,-6.37
2016-11-11T00:13:44.936Z,-6.41
2016-11-11T00:14:44.892Z,-6.37
2016-11-11T00:15:44.875Z,-6.39
2016-11-11T00:16:44.837Z,-6.34
2016-11-11T00:17:44.846Z,-6.42
2016-11-11T00:18:44.789Z,-6.39
2016-11-11T00:19:44.803Z,-6.37
2016-11-11T00:20:44.748Z,-6.31
2016-11-11T00:21:44.735Z,-6.32
2016-11-11T00:22:45.017Z,-6.27
2016-11-11T00:23:44.709Z,-6.27
2016-11-11T00:24:44.658Z,-6.31
2016-11-11T00:25:44.650Z,-6.26
2016-11-11T00:26:44.630Z,-6.26
2016-11-11T00:27:44.591Z,-6.31
2016-11-11T00:28:44.586Z,-6.27
2016-11-11T00:29:44.561Z,-6.24
2016-11-11T00:30:44.544Z,-6.27
2016-11-11T00:31:44.506Z,-6.31
2016-11-11T00:32:44.484Z,-6.26
2016-11-11T00:33:44.460Z,-6.2
2016-11-11T00:34:44.426Z,-6.09
2016-11-11T00:35:44.432Z,-6.1
2016-11-11T00:36:44.403Z,-6.13
2016-11-11T00:37:44.376Z,-6.09
2016-11-11T00:38:44.353Z,-6.13
2016-11-11T00:39:44.329Z,-6.02
2016-11-11T00:40:44.321Z,-5.99
2016-11-11T00:41:44.282Z,-6
2016-11-11T00:42:44.262Z,-6
2016-11-11T00:43:44.254Z,-6.02
2016-11-11T00:44:44.216Z,-6.13
2016-11-11T00:45:44.210Z,-6.09
2016-11-11T00:46:44.175Z,-6.02
2016-11-11T00:47:44.155Z,-6
2016-11-11T00:48:44.137Z,-6.08
2016-11-11T00:49:44.133Z,-6
2016-11-11T00:50:44.101Z,-6
2016-11-11T00:51:44.388Z,-6.05
2016-11-11T00:52:44.055Z,-5.9
2016-11-11T00:53:44.058Z,-5.98
2016-11-11T00:54:44.014Z,-6.02
2016-11-11T00:55:44.000Z,-6.03
2016-11-11T00:56:43.965Z,-5.99
2016-11-11T00:57:43.966Z,-5.99
2016-11-11T00:58:43.929Z,-6.08
2016-11-11T00:59:43.906Z,-6.09
2016-11-11T01:00:43.900Z,-6
2016-11-11T01:01:43.860Z,-6.13
2016-11-11T01:02:43.832Z,-6.09
2016-11-11T01:03:43.823Z,-5.96
2016-11-11T01:04:43.781Z,-6.06
2016-11-11T01:05:43.750Z,-6.14
2016-11-11T01:06:43.739Z,-6.14
2016-11-11T01:07:43.731Z,-6.19
2016-11-11T01:08:43.687Z,-6.2
2016-11-11T01:09:43.668Z,-6.2
2016-11-11T01:10:43.651Z,-6.26
2016-11-11T01:11:43.972Z,-6.24
2016-11-11T01:12:43.669Z,-6.26
2016-11-11T01:13:43.613Z,-6.29
2016-11-11T01:14:43.576Z,-6.31
2016-11-11T01:15:43.573Z,-6.29
2016-11-11T01:16:43.549Z,-6.32
2016-11-11T01:17:43.516Z,-6.26
2016-11-11T01:18:43.477Z,-6.23
2016-11-11T01:19:43.448Z,-6.24
2016-11-11T01:20:43.446Z,-6.26
2016-11-11T01:21:43.437Z,-6.23
2016-11-11T01:22:43.393Z,-6.31
2016-11-11T01:23:43.360Z,-6.27
2016-11-11T01:24:43.354Z,-6.31
2016-11-11T01:25:43.332Z,-6.39
2016-11-11T01:26:43.316Z,-6.27
2016-11-11T01:27:43.271Z,-6.26
2016-11-11T01:28:43.563Z,-6.31
2016-11-11T01:29:43.262Z,-6.31
2016-11-11T01:30:43.231Z,-6.23
2016-11-11T01:31:43.206Z,-6.17
2016-11-11T01:32:43.168Z,-6.23
2016-11-11T01:33:43.162Z,-6.32
2016-11-11T01:34:43.127Z,-6.29
2016-11-11T01:35:43.106Z,-6.29
2016-11-11T01:36:43.074Z,-6.27
2016-11-11T01:37:43.052Z,-6.32
2016-11-11T01:38:43.026Z,-6.26
2016-11-11T01:39:43.018Z,-6.31
2016-11-11T01:40:42.993Z,-6.32
2016-11-11T01:41:42.974Z,-6.31
2016-11-11T01:42:42.938Z,-6.29
2016-11-11T01:43:42.946Z,-6.27
2016-11-11T01:44:42.891Z,-6.21
2016-11-11T01:45:42.892Z,-6.23
2016-11-11T01:46:42.896Z,-6.21
2016-11-11T01:47:42.843Z,-6.23
2016-11-11T01:48:42.813Z,-6.21
2016-11-11T01:49:42.804Z,-6.19
2016-11-11T01:50:42.782Z,-6.19
2016-11-11T01:51:42.747Z,-6.17
2016-11-11T01:52:42.729Z,-6.2
2016-11-11T01:53:42.696Z,-6.2
2016-11-11T01:54:42.679Z,-6.21
2016-11-11T01:55:42.687Z,-6.23
2016-11-11T01:56:42.647Z,-6.13
2016-11-11T01:57:42.629Z,-6.17
2016-11-11T01:58:42.607Z,-6.16
2016-11-11T01:59:42.576Z,-6.23
2016-11-11T02:00:42.556Z,-6.16
2016-11-11T02:01:42.552Z,-6.14
2016-11-11T02:02:42.541Z,-6.08
2016-11-11T02:03:42.506Z,-6.05
2016-11-11T02:04:42.492Z,-6.1
2016-11-11T02:05:42.446Z,-6.1
2016-11-11T02:06:42.431Z,-6.1
2016-11-11T02:07:42.412Z,-6.09
2016-11-11T02:08:42.388Z,-6.1
2016-11-11T02:09:42.361Z,-6.17
2016-11-11T02:10:42.336Z,-6.08
2016-11-11T02:11:42.302Z,-6.13
2016-11-11T02:12:42.295Z,-6.05
2016-11-11T02:13:42.255Z,-6.16
2016-11-11T02:14:42.238Z,-6.23
2016-11-11T02:15:42.246Z,-6.2
2016-11-11T02:16:42.211Z,-6.06
2016-11-11T02:17:42.188Z,-6.17
2016-11-11T02:18:42.162Z,-6.06
2016-11-11T02:19:42.147Z,-6.13
2016-11-11T02:20:42.131Z,-6.08
2016-11-11T02:21:42.079Z,-6.08
2016-11-11T02:22:42.084Z,-6.13
2016-11-11T02:23:42.031Z,-6.09
2016-11-11T02:24:42.029Z,-6.13
2016-11-11T02:25:42.010Z,-6.13
2016-11-11T02:26:41.989Z,-6.16
2016-11-11T02:27:41.940Z,-6.08
2016-11-11T02:28:41.940Z,-6.09
2016-11-11T02:29:41.928Z,-6.03
2016-11-11T02:30:41.889Z,-6.08
2016-11-11T02:31:41.863Z,-6
2016-11-11T02:32:41.832Z,-6.1
2016-11-11T02:33:41.847Z,-6.02
2016-11-11T02:34:41.812Z,-5.99
2016-11-11T02:35:41.797Z,-6.1
2016-11-11T02:36:41.757Z,-5.99
2016-11-11T02:37:41.744Z,-6.06
2016-11-11T02:38:41.698Z,-6.1
2016-11-11T02:39:41.697Z,-6.1
2016-11-11T02:40:41.658Z,-6.02
2016-11-11T02:41:41.649Z,-6.13
2016-11-11T02:42:41.634Z,-6.1
2016-11-11T02:43:41.631Z,-5.96
2016-11-11T02:44:41.587Z,-6.02
2016-11-11T02:45:41.561Z,-6.02
2016-11-11T02:46:41.545Z,-5.99
2016-11-11T02:47:41.536Z,-5.98
2016-11-11T02:48:41.499Z,-6.02
2016-11-11T02:49:41.474Z,-5.95
2016-11-11T02:50:41.439Z,-6.06
2016-11-11T02:51:41.434Z,-5.99
2016-11-11T02:52:41.395Z,-6.02
2016-11-11T02:53:41.394Z,-6.05
2016-11-11T02:54:41.375Z,-6.02
2016-11-11T02:55:41.327Z,-6.06
2016-11-11T02:56:41.313Z,-5.99
2016-11-11T02:57:41.292Z,-5.99
2016-11-11T02:58:41.273Z,-6.02
2016-11-11T02:59:41.273Z,-6.06
2016-11-11T03:00:41.228Z,-6.06
2016-11-11T03:01:41.226Z,-6.17
2016-11-11T03:02:41.189Z,-6.1
2016-11-11T03:03:41.163Z,-6.08
2016-11-11T03:04:41.159Z,-6.16
2016-11-11T03:05:41.446Z,-6.2
2016-11-11T03:06:41.108Z,-6.13
2016-11-11T03:07:41.062Z,-6.19
2016-11-11T03:08:41.055Z,-6.23
2016-11-11T03:09:41.031Z,-6.24
2016-11-11T03:10:41.007Z,-6.26
2016-11-11T03:11:41.312Z,-6.21
2016-11-11T03:12:40.958Z,-6.21
2016-11-11T03:13:40.960Z,-6.21
2016-11-11T03:14:40.901Z,-6.14
2016-11-11T03:15:40.875Z,-6.27
2016-11-11T03:16:40.871Z,-6.24
2016-11-11T03:17:40.857Z,-6.27
2016-11-11T03:18:40.835Z,-6.31
2016-11-11T03:19:40.818Z,-6.31
2016-11-11T03:20:40.773Z,-6.32
2016-11-11T03:21:40.768Z,-6.29
2016-11-11T03:22:40.754Z,-6.31
2016-11-11T03:23:40.720Z,-6.34
2016-11-11T03:24:40.685Z,-6.34
2016-11-11T03:25:40.697Z,-6.26
2016-11-11T03:26:40.657Z,-6.32
2016-11-11T03:27:40.638Z,-6.23
2016-11-11T03:28:40.628Z,-6.2
2016-11-11T03:29:40.588Z,-6.26
2016-11-11T03:30:40.577Z,-6.26
2016-11-11T03:31:40.532Z,-6.26
2016-11-11T03:32:40.530Z,-6.26
2016-11-11T03:33:40.515Z,-6.26
2016-11-11T03:34:40.474Z,-6.26
2016-11-11T03:35:40.458Z,-6.26
2016-11-11T03:36:40.442Z,-6.21
2016-11-11T03:37:40.429Z,-6.17
2016-11-11T03:38:40.402Z,-6.08
2016-11-11T03:39:40.369Z,-6.06
2016-11-11T03:40:40.351Z,-6.06
2016-11-11T03:41:40.309Z,-6.09
2016-11-11T03:42:40.281Z,-6.02
2016-11-11T03:43:40.262Z,-5.98
2016-11-11T03:44:40.247Z,-5.95
2016-11-11T03:45:40.256Z,-6.06
2016-11-11T03:46:40.222Z,-6.03
2016-11-11T03:47:40.200Z,-6.03
2016-11-11T03:48:40.171Z,-5.98
2016-11-11T03:49:40.140Z,-5.92
2016-11-11T03:50:40.128Z,-6
2016-11-11T03:51:40.129Z,-5.96
2016-11-11T03:52:40.083Z,-5.96
2016-11-11T03:53:40.076Z,-5.91
2016-11-11T03:54:40.045Z,-5.92
2016-11-11T03:55:40.046Z,-5.84
2016-11-11T03:56:39.997Z,-5.91
2016-11-11T03:57:40.018Z,-5.9
2016-11-11T03:58:39.962Z,-5.85
2016-11-11T03:59:39.918Z,-5.85
2016-11-11T04:00:39.924Z,-5.99
2016-11-11T04:01:39.908Z,-5.92
2016-11-11T04:02:39.860Z,-5.96
2016-11-11T04:03:39.833Z,-5.99
2016-11-11T04:04:39.810Z,-5.98
2016-11-11T04:05:39.824Z,-6
2016-11-11T04:06:39.806Z,-5.95
2016-11-11T04:07:39.767Z,-5.85
2016-11-11T04:08:39.749Z,-5.85
2016-11-11T04:09:39.703Z,-5.9
2016-11-11T04:10:39.698Z,-6
2016-11-11T04:11:39.686Z,-5.88
2016-11-11T04:12:39.641Z,-5.81
2016-11-11T04:13:39.650Z,-5.92
2016-11-11T04:14:39.612Z,-5.71
2016-11-11T04:15:39.578Z,-5.78
2016-11-11T04:16:39.565Z,-5.71
2016-11-11T04:17:39.550Z,-5.77
2016-11-11T04:18:39.554Z,-5.7
2016-11-11T04:19:39.494Z,-5.7
2016-11-11T04:20:39.512Z,-5.66
2016-11-11T04:21:39.461Z,-5.82
2016-11-11T04:22:39.437Z,-5.66
2016-11-11T04:23:39.433Z,-5.7
2016-11-11T04:24:39.420Z,-5.67
2016-11-11T04:25:39.405Z,-5.81
2016-11-11T04:26:39.363Z,-5.81
2016-11-11T04:27:39.389Z,-5.73
2016-11-11T04:28:39.339Z,-5.78
2016-11-11T04:29:39.337Z,-5.73
2016-11-11T04:30:39.261Z,-5.66
2016-11-11T04:31:39.255Z,-5.67
2016-11-11T04:32:39.262Z,-5.8
2016-11-11T04:33:39.240Z,-5.77
2016-11-11T04:34:39.197Z,-5.75
2016-11-11T04:35:39.198Z,-5.88
2016-11-11T04:36:39.150Z,-5.84
2016-11-11T04:37:39.146Z,-5.92
2016-11-11T04:38:39.714Z,-5.84
2016-11-11T04:39:39.088Z,-5.87
2016-11-11T04:40:39.051Z,-5.81
2016-11-11T04:41:39.044Z,-5.73
2016-11-11T04:42:39.334Z,-5.8
2016-11-11T04:43:38.997Z,-5.75
2016-11-11T04:44:39.006Z,-5.81
2016-11-11T04:45:38.953Z,-5.69
2016-11-11T04:46:38.943Z,-5.66
2016-11-11T04:47:38.923Z,-5.64
2016-11-11T04:48:38.904Z,-5.73
2016-11-11T04:49:38.898Z,-5.69
2016-11-11T04:50:38.856Z,-5.67
2016-11-11T04:51:38.839Z,-5.73
2016-11-11T04:52:38.812Z,-5.71
2016-11-11T04:53:38.805Z,-5.67
2016-11-11T04:54:38.753Z,-5.7
2016-11-11T04:55:38.736Z,-5.66
2016-11-11T04:56:38.719Z,-5.78
2016-11-11T04:57:38.721Z,-5.7
2016-11-11T04:58:38.682Z,-5.73
2016-11-11T04:59:38.671Z,-5.73
2016-11-11T05:00:38.652Z,-5.84
2016-11-11T05:01:38.619Z,-5.77
2016-11-11T05:02:38.601Z,-5.8
2016-11-11T05:03:38.571Z,-5.81
2016-11-11T05:04:38.588Z,-5.87
2016-11-11T05:05:38.518Z,-5.82
2016-11-11T05:06:38.523Z,-5.85
2016-11-11T05:07:38.497Z,-5.91
2016-11-11T05:08:38.491Z,-5.99
2016-11-11T05:09:38.438Z,-6
2016-11-11T05:10:38.429Z,-6.03
2016-11-11T05:11:38.394Z,-6.02
2016-11-11T05:12:38.383Z,-6
2016-11-11T05:13:38.361Z,-6.08
2016-11-11T05:14:38.355Z,-5.98
2016-11-11T05:15:38.316Z,-5.96
2016-11-11T05:16:38.306Z,-6.06
2016-11-11T05:17:38.263Z,-6
2016-11-11T05:18:38.250Z,-6
2016-11-11T05:19:38.243Z,-6.09
2016-11-11T05:20:38.203Z,-5.99
2016-11-11T05:21:38.192Z,-6.05
2016-11-11T05:22:38.155Z,-6.06
2016-11-11T05:23:38.140Z,-6.02
2016-11-11T05:24:38.110Z,-6
2016-11-11T05:25:38.091Z,-6.05
2016-11-11T05:26:38.074Z,-6.08
2016-11-11T05:27:38.079Z,-6.06
2016-11-11T05:28:38.049Z,-6.08
2016-11-11T05:29:38.008Z,-5.99
2016-11-11T05:30:37.991Z,-6.06
2016-11-11T05:31:37.962Z,-5.98
2016-11-11T05:32:37.943Z,-6.02
2016-11-11T05:33:37.953Z,-5.99
2016-11-11T05:34:37.909Z,-5.98
2016-11-11T05:35:37.896Z,-6.03
2016-11-11T05:36:37.853Z,-6.06
2016-11-11T05:37:37.840Z,-6.05
2016-11-11T05:38:37.805Z,-6
2016-11-11T05:39:37.800Z,-5.98
2016-11-11T05:40:37.774Z,-6.02
2016-11-11T05:41:37.752Z,-6
2016-11-11T05:42:37.731Z,-5.96
2016-11-11T05:43:37.728Z,-6
2016-11-11T05:44:37.685Z,-5.96
2016-11-11T05:45:37.656Z,-5.99
2016-11-11T05:46:37.653Z,-5.96
2016-11-11T05:47:37.602Z,-5.99
2016-11-11T05:48:37.589Z,-5.95
2016-11-11T05:49:37.579Z,-5.92
2016-11-11T05:50:37.552Z,-5.85
2016-11-11T05:51:37.510Z,-6.02
2016-11-11T05:52:37.496Z,-6.1
2016-11-11T05:53:37.502Z,-6.02
2016-11-11T05:54:37.452Z,-5.99
2016-11-11T05:55:37.440Z,-6.08
2016-11-11T05:56:37.437Z,-6.08
2016-11-11T05:57:37.385Z,-5.95
2016-11-11T05:58:37.365Z,-5.99
2016-11-11T05:59:37.357Z,-6
2016-11-11T06:00:37.336Z,-5.96
2016-11-11T06:01:37.628Z,-6.03
2016-11-11T06:02:37.277Z,-5.99
2016-11-11T06:03:37.241Z,-6.02
2016-11-11T06:04:37.258Z,-6.02
2016-11-11T06:05:37.232Z,-5.96
2016-11-11T06:06:37.195Z,-6
2016-11-11T06:07:37.172Z,-6.08
2016-11-11T06:08:37.164Z,-6
2016-11-11T06:09:37.106Z,-6.08
2016-11-11T06:10:37.119Z,-6.09
2016-11-11T06:11:37.081Z,-6
2016-11-11T06:12:37.063Z,-6.08
2016-11-11T06:13:37.034Z,-6.02
2016-11-11T06:14:37.034Z,-5.96
2016-11-11T06:15:36.994Z,-6
2016-11-11T06:16:36.965Z,-5.95
2016-11-11T06:17:36.933Z,-6.03
2016-11-11T06:18:36.934Z,-5.95
2016-11-11T06:19:36.911Z,-5.9
2016-11-11T06:20:36.881Z,-5.92
2016-11-11T06:21:36.864Z,-5.84
2016-11-11T06:22:36.855Z,-5.92
2016-11-11T06:23:36.820Z,-5.99
2016-11-11T06:24:36.804Z,-5.87
2016-11-11T06:25:36.758Z,-5.9
2016-11-11T06:26:36.761Z,-5.98
2016-11-11T06:27:36.747Z,-5.91
2016-11-11T06:28:36.698Z,-5.9
2016-11-11T06:29:36.998Z,-5.85
2016-11-11T06:30:36.660Z,-5.88
2016-11-11T06:31:36.657Z,-5.85
2016-11-11T06:32:36.631Z,-5.82
2016-11-11T06:33:36.595Z,-5.81
2016-11-11T06:34:36.599Z,-5.98
2016-11-11T06:35:36.567Z,-5.9
2016-11-11T06:36:36.530Z,-5.96
2016-11-11T06:37:36.516Z,-5.9
2016-11-11T06:38:36.504Z,-5.88
2016-11-11T06:39:36.490Z,-5.88
2016-11-11T06:40:36.447Z,-5.91
2016-11-11T06:41:36.431Z,-5.88
2016-11-11T06:42:36.414Z,-5.92
2016-11-11T06:43:36.385Z,-5.91
2016-11-11T06:44:36.359Z,-5.92
2016-11-11T06:45:36.344Z,-5.88
2016-11-11T06:46:36.306Z,-5.85
2016-11-11T06:47:36.307Z,-5.84
2016-11-11T06:48:36.263Z,-5.95
2016-11-11T06:49:36.275Z,-5.91
2016-11-11T06:50:36.233Z,-5.96
2016-11-11T06:51:36.227Z,-5.96
2016-11-11T06:52:36.185Z,-5.98
2016-11-11T06:53:36.169Z,-5.98
2016-11-11T06:54:36.154Z,-5.91
2016-11-11T06:55:36.110Z,-6
2016-11-11T06:56:36.101Z,-5.99
2016-11-11T06:57:36.066Z,-6.02
2016-11-11T06:58:36.045Z,-6.05
2016-11-11T06:59:36.053Z,-6.09
2016-11-11T07:00:36.004Z,-6.03
2016-11-11T07:01:36.612Z,-6.05
2016-11-11T07:02:35.982Z,-6.06
2016-11-11T07:03:35.957Z,-6.02
2016-11-11T07:04:35.918Z,-5.99
2016-11-11T07:05:35.908Z,-5.98
2016-11-11T07:06:36.205Z,-5.99
2016-11-11T07:07:35.887Z,-6.02
2016-11-11T07:08:35.826Z,-5.99
2016-11-11T07:09:35.821Z,-5.84
2016-11-11T07:10:35.824Z,-5.84
2016-11-11T07:11:35.781Z,-5.8
2016-11-11T07:12:35.744Z,-5.8
2016-11-11T07:13:35.777Z,-5.88
2016-11-11T07:14:35.710Z,-5.82
2016-11-11T07:15:35.697Z,-6.02
2016-11-11T07:16:35.699Z,-5.92
2016-11-11T07:17:35.649Z,-6
2016-11-11T07:18:35.619Z,-6.09
2016-11-11T07:19:35.609Z,-5.92
2016-11-11T07:20:35.607Z,-6.1
2016-11-11T07:21:35.556Z,-6.06
2016-11-11T07:22:35.559Z,-6.08
2016-11-11T07:23:35.544Z,-6.23
2016-11-11T07:24:35.501Z,-6.26
2016-11-11T07:25:35.467Z,-6.27
2016-11-11T07:26:35.482Z,-6.27
2016-11-11T07:27:35.439Z,-6.34
2016-11-11T07:28:35.396Z,-6.29
2016-11-11T07:29:35.390Z,-6.34
2016-11-11T07:30:35.354Z,-6.39
2016-11-11T07:31:35.368Z,-6.35
2016-11-11T07:32:35.324Z,-6.31
2016-11-11T07:33:35.317Z,-6.27
2016-11-11T07:34:35.291Z,-6.27
2016-11-11T07:35:35.244Z,-6.26
2016-11-11T07:36:35.231Z,-6.21
2016-11-11T07:37:35.213Z,-6.26
2016-11-11T07:38:35.202Z,-6.23
2016-11-11T07:39:35.229Z,-6.14
2016-11-11T07:40:35.154Z,-6.23
2016-11-11T07:41:35.155Z,-6.21
2016-11-11T07:42:35.170Z,-6.24
2016-11-11T07:43:35.385Z,-6.32
2016-11-11T07:44:35.075Z,-6.39
2016-11-11T07:45:35.041Z,-6.45
2016-11-11T07:46:35.048Z,-6.56
2016-11-11T07:47:35.013Z,-6.5
2016-11-11T07:48:34.995Z,-6.5
2016-11-11T07:49:41.252Z,-6.56
2016-11-11T07:50:34.949Z,-6.53
2016-11-11T07:51:34.912Z,-6.64
2016-11-11T07:52:34.922Z,-6.74
2016-11-11T07:53:35.183Z,-6.78
2016-11-11T07:54:34.868Z,-6.77
2016-11-11T07:55:34.842Z,-6.81
2016-11-11T07:56:34.826Z,-6.87
2016-11-11T07:57:34.790Z,-6.93
2016-11-11T07:58:34.753Z,-7.05
2016-11-11T07:59:34.742Z,-7.11
2016-11-11T08:00:34.721Z,-7.16
2016-11-11T08:01:34.690Z,-7.24
2016-11-11T08:02:34.667Z,-7.34
2016-11-11T08:03:34.638Z,-7.31
2016-11-11T08:04:34.650Z,-7.37
2016-11-11T08:05:34.599Z,-7.31
2016-11-11T08:06:34.575Z,-7.34
2016-11-11T08:07:34.562Z,-7.42
2016-11-11T08:08:34.532Z,-7.34
2016-11-11T08:09:34.513Z,-7.34
2016-11-11T08:10:34.482Z,-7.34
2016-11-11T08:11:34.447Z,-7.45
2016-11-11T08:12:34.442Z,-7.41
2016-11-11T08:13:34.429Z,-7.5
2016-11-11T08:14:34.373Z,-7.49
2016-11-11T08:15:34.375Z,-7.49
2016-11-11T08:16:34.363Z,-7.49
2016-11-11T08:17:34.516Z,-7.49
2016-11-11T08:18:34.300Z,-7.47
2016-11-11T08:19:34.260Z,-7.52
2016-11-11T08:20:34.255Z,-7.47
2016-11-11T08:21:34.222Z,-7.52
2016-11-11T08:22:34.201Z,-7.46
2016-11-11T08:23:34.178Z,-7.6
2016-11-11T08:24:34.174Z,-7.52
2016-11-11T08:25:34.151Z,-7.64
2016-11-11T08:26:34.117Z,-7.53
2016-11-11T08:27:34.104Z,-7.62
2016-11-11T08:28:34.074Z,-7.6
2016-11-11T08:29:34.044Z,-7.62
2016-11-11T08:30:33.999Z,-7.64
2016-11-11T08:31:34.008Z,-7.64
2016-11-11T08:32:33.971Z,-7.6
2016-11-11T08:33:33.965Z,-7.66
2016-11-11T08:34:33.903Z,-7.62
2016-11-11T08:35:33.915Z,-7.68
2016-11-11T08:36:33.863Z,-7.59
2016-11-11T08:37:33.853Z,-7.67
2016-11-11T08:38:33.808Z,-7.73
2016-11-11T08:39:33.802Z,-7.67
2016-11-11T08:40:33.771Z,-7.66
2016-11-11T08:41:33.763Z,-7.62
2016-11-11T08:42:33.749Z,-7.68
2016-11-11T08:43:33.700Z,-7.59
2016-11-11T08:44:33.873Z,-7.6
2016-11-11T08:45:33.875Z,-7.67
2016-11-11T08:46:33.652Z,-7.52
2016-11-11T08:47:33.612Z,-7.52
2016-11-11T08:48:33.601Z,-7.34
2016-11-11T08:49:33.561Z,-7.46
2016-11-11T08:50:33.532Z,-7.31
2016-11-11T08:51:33.522Z,-7.37
2016-11-11T08:52:33.503Z,-7.31
2016-11-11T08:53:33.453Z,-7.32
2016-11-11T08:54:33.451Z,-7.35
2016-11-11T08:55:33.407Z,-7.31
2016-11-11T08:56:33.384Z,-7.28
2016-11-11T08:57:33.363Z,-7.32
2016-11-11T08:58:33.371Z,-7.37
2016-11-11T08:59:33.334Z,-7.35
2016-11-11T09:00:33.289Z,-7.32
2016-11-11T09:01:33.280Z,-7.31
2016-11-11T09:02:33.250Z,-7.37
2016-11-11T09:03:33.238Z,-7.39
2016-11-11T09:04:33.216Z,-7.32
2016-11-11T09:05:33.193Z,-7.31
2016-11-11T09:06:33.179Z,-7.21
2016-11-11T09:07:33.156Z,-7.31
2016-11-11T09:08:33.122Z,-7.27
2016-11-11T09:09:33.099Z,-7.32
2016-11-11T09:10:33.079Z,-7.21
2016-11-11T09:11:33.235Z,-7.17
2016-11-11T09:12:33.250Z,-7.14
2016-11-11T09:13:33.001Z,-7.18
2016-11-11T09:14:32.997Z,-7.1
2016-11-11T09:15:33.133Z,-7.16
2016-11-11T09:16:32.937Z,-7.1
2016-11-11T09:17:32.927Z,-7.14
2016-11-11T09:18:32.899Z,-7.13
2016-11-11T09:19:32.865Z,-7.08
2016-11-11T09:20:32.842Z,-7.13
2016-11-11T09:21:32.832Z,-7.13
2016-11-11T09:22:32.812Z,-7.1
2016-11-11T09:23:32.773Z,-7.17
2016-11-11T09:24:32.782Z,-7.08
2016-11-11T09:25:32.741Z,-7.07
2016-11-11T09:26:32.720Z,-7.07
2016-11-11T09:27:32.690Z,-7.2
2016-11-11T09:28:32.662Z,-7.05
2016-11-11T09:29:32.624Z,-7.13
2016-11-11T09:30:32.619Z,-7.05
2016-11-11T09:31:32.600Z,-7.17
2016-11-11T09:32:32.578Z,-7.13
2016-11-11T09:33:32.554Z,-7.18
2016-11-11T09:34:32.858Z,-7.16
2016-11-11T09:35:32.511Z,-7.1
2016-11-11T09:36:32.475Z,-7.1
2016-11-11T09:37:32.482Z,-7.11
2016-11-11T09:38:32.423Z,-7
2016-11-11T09:39:32.612Z,-6.98
2016-11-11T09:40:32.402Z,-6.98
2016-11-11T09:41:32.366Z,-7.02
2016-11-11T09:42:32.335Z,-7.17
2016-11-11T09:43:32.327Z,-7.14
2016-11-11T09:44:32.297Z,-7.17
2016-11-11T09:45:32.287Z,-7.13
2016-11-11T09:46:32.263Z,-7.21
2016-11-11T09:47:32.251Z,-7.27
2016-11-11T09:48:32.221Z,-7.21
2016-11-11T09:49:32.181Z,-7.14
2016-11-11T09:50:32.166Z,-7.1
2016-11-11T09:51:32.142Z,-7.08
2016-11-11T09:52:32.109Z,-7.07
2016-11-11T09:53:32.084Z,-7.13
2016-11-11T09:54:32.084Z,-7.1
2016-11-11T09:55:32.061Z,-7.14
2016-11-11T09:56:32.054Z,-7.05
2016-11-11T09:57:32.033Z,-7.02
2016-11-11T09:58:31.973Z,-7
2016-11-11T09:59:31.984Z,-7
2016-11-11T10:00:31.957Z,-6.98
2016-11-11T10:01:31.934Z,-6.99
2016-11-11T10:02:31.907Z,-7
2016-11-11T10:03:31.888Z,-6.96
2016-11-11T10:04:31.871Z,-7.03
2016-11-11T10:05:32.037Z,-6.98
2016-11-11T10:06:32.005Z,-6.99
2016-11-11T10:07:31.801Z,-7.1
2016-11-11T10:08:31.772Z,-7.13
2016-11-11T10:09:31.731Z,-7.13
2016-11-11T10:10:31.723Z,-7.1
2016-11-11T10:11:31.707Z,-7.13
2016-11-11T10:12:31.686Z,-7.11
2016-11-11T10:13:31.650Z,-7.13
2016-11-11T10:14:31.634Z,-7.14
2016-11-11T10:15:31.617Z,-7.2
2016-11-11T10:16:31.591Z,-7.18
2016-11-11T10:17:31.589Z,-7.37
2016-11-11T10:18:31.547Z,-7.37
2016-11-11T10:19:31.536Z,-7.38
2016-11-11T10:20:31.480Z,-7.66
2016-11-11T10:21:31.485Z,-7.56
2016-11-11T10:22:31.454Z,-7.68
2016-11-11T10:23:31.428Z,-7.78
2016-11-11T10:24:31.388Z,-7.77
2016-11-11T10:25:31.388Z,-7.82
2016-11-11T10:26:31.364Z,-7.8
2016-11-11T10:27:31.348Z,-7.8
2016-11-11T10:28:31.318Z,-7.92
2016-11-11T10:29:31.290Z,-7.95
2016-11-11T10:30:31.266Z,-7.92
2016-11-11T10:31:31.235Z,-7.95
2016-11-11T10:32:31.207Z,-7.98
2016-11-11T10:33:31.191Z,-8.06
2016-11-11T10:34:31.151Z,-7.98
2016-11-11T10:35:31.127Z,-8.1
2016-11-11T10:36:31.118Z,-8.06
2016-11-11T10:37:31.128Z,-8.08
2016-11-11T10:38:31.080Z,-7.98
2016-11-11T10:39:31.049Z,-8.06
2016-11-11T10:40:31.019Z,-8.06
2016-11-11T10:41:31.014Z,-7.99
2016-11-11T10:42:30.968Z,-8.06
2016-11-11T10:43:30.944Z,-8.06
2016-11-11T10:44:30.914Z,-7.96
2016-11-11T10:45:31.118Z,-8.03
2016-11-11T10:46:30.879Z,-8.03
2016-11-11T10:47:30.854Z,-8.06
2016-11-11T10:48:30.826Z,-8.03
2016-11-11T10:49:30.803Z,-7.95
2016-11-11T10:50:30.780Z,-7.99
2016-11-11T10:51:30.752Z,-7.98
2016-11-11T10:52:30.733Z,-7.99
2016-11-11T10:53:30.707Z,-8.1
2016-11-11T10:54:30.672Z,-8.08
2016-11-11T10:55:30.659Z,-8.25
2016-11-11T10:56:30.642Z,-8.11
2016-11-11T10:57:30.648Z,-8.21
2016-11-11T10:58:30.592Z,-8.18
2016-11-11T10:59:30.564Z,-8.22
2016-11-11T11:00:30.527Z,-8.17
2016-11-11T11:01:30.517Z,-8.11
2016-11-11T11:02:30.500Z,-8.25
2016-11-11T11:03:30.486Z,-8.17
2016-11-11T11:04:30.445Z,-8.18
2016-11-11T11:05:30.433Z,-8.22
2016-11-11T11:06:30.402Z,-8.16
2016-11-11T11:07:30.378Z,-8.22
2016-11-11T11:08:30.347Z,-8.17
2016-11-11T11:09:30.335Z,-8.22
2016-11-11T11:10:30.324Z,-8.16
2016-11-11T11:11:30.293Z,-8.25
2016-11-11T11:12:30.262Z,-8.17
2016-11-11T11:13:30.218Z,-8.21
2016-11-11T11:14:30.227Z,-8.22
2016-11-11T11:15:30.183Z,-8.24
2016-11-11T11:16:30.164Z,-8.21
2016-11-11T11:17:30.142Z,-8.28
2016-11-11T11:18:30.096Z,-8.25
2016-11-11T11:19:30.075Z,-8.31
2016-11-11T11:20:30.068Z,-8.32
2016-11-11T11:21:30.025Z,-8.32
2016-11-11T11:22:30.015Z,-8.31
2016-11-11T11:23:29.995Z,-8.31
2016-11-11T11:24:29.967Z,-8.32
2016-11-11T11:25:29.947Z,-8.25
2016-11-11T11:26:29.924Z,-8.32
2016-11-11T11:27:29.903Z,-8.29
2016-11-11T11:28:29.888Z,-8.42
2016-11-11T11:29:29.847Z,-8.35
2016-11-11T11:30:29.832Z,-8.29
2016-11-11T11:31:29.822Z,-8.29
2016-11-11T11:32:29.764Z,-8.25
2016-11-11T11:33:29.765Z,-8.27
2016-11-11T11:34:29.743Z,-8.22
2016-11-11T11:35:29.729Z,-8.18
2016-11-11T11:36:29.697Z,-8.16
2016-11-11T11:37:29.671Z,-8.21
2016-11-11T11:38:29.629Z,-8.14
2016-11-11T11:39:29.613Z,-8.11
2016-11-11T11:40:29.585Z,-8.08
2016-11-11T11:41:29.587Z,-8.03
2016-11-11T11:42:29.556Z,-7.96
2016-11-11T11:43:29.522Z,-8.03
2016-11-11T11:44:29.517Z,-7.89
2016-11-11T11:45:29.488Z,-7.92
2016-11-11T11:46:29.443Z,-7.92
2016-11-11T11:47:29.453Z,-7.88
2016-11-11T11:48:29.414Z,-7.95
2016-11-11T11:49:29.686Z,-7.98
2016-11-11T11:50:29.358Z,-7.99
2016-11-11T11:51:29.341Z,-7.98
2016-11-11T11:52:29.316Z,-7.99
2016-11-11T11:53:29.290Z,-8.04
2016-11-11T11:54:29.273Z,-8.04
2016-11-11T11:55:29.250Z,-7.96
2016-11-11T11:56:29.201Z,-7.94
2016-11-11T11:57:29.201Z,-8.06
2016-11-11T11:58:29.168Z,-7.99
2016-11-11T11:59:29.153Z,-7.96
2016-11-11T12:00:29.115Z,-8.06
2016-11-11T12:01:29.105Z,-8.07
2016-11-11T12:02:29.096Z,-8.06
2016-11-11T12:03:29.039Z,-7.99
2016-11-11T12:04:29.037Z,-7.98
2016-11-11T12:05:29.029Z,-8.08
2016-11-11T12:06:28.989Z,-8.04
2016-11-11T12:07:28.957Z,-7.96
2016-11-11T12:08:28.958Z,-7.98
2016-11-11T12:09:28.917Z,-8.06
2016-11-11T12:10:28.885Z,-8.08
2016-11-11T12:11:28.865Z,-8.08
2016-11-11T12:12:28.838Z,-8.21
2016-11-11T12:13:28.837Z,-8.22
2016-11-11T12:14:28.811Z,-8.22
2016-11-11T12:15:28.754Z,-8.16
2016-11-11T12:16:28.750Z,-8.24
2016-11-11T12:17:28.726Z,-8.24
2016-11-11T12:18:28.688Z,-8.22
2016-11-11T12:19:28.693Z,-8.03
2016-11-11T12:20:28.656Z,-8.16
2016-11-11T12:21:28.625Z,-8.22
2016-11-11T12:22:28.606Z,-8.21
2016-11-11T12:23:28.591Z,-8.21
2016-11-11T12:24:28.546Z,-8.17
2016-11-11T12:25:28.523Z,-8.22
2016-11-11T12:26:28.513Z,-8.25
2016-11-11T12:27:28.471Z,-8.25
2016-11-11T12:28:28.478Z,-8.31
2016-11-11T12:29:28.426Z,-8.34
2016-11-11T12:30:28.414Z,-8.31
2016-11-11T12:31:28.378Z,-8.29
2016-11-11T12:32:28.369Z,-8.24
2016-11-11T12:33:28.345Z,-8.27
2016-11-11T12:34:28.325Z,-8.25
2016-11-11T12:35:28.311Z,-8.25
2016-11-11T12:36:28.275Z,-8.13
2016-11-11T12:37:28.252Z,-8.24
2016-11-11T12:38:28.216Z,-8.31
2016-11-11T12:39:28.232Z,-8.37
2016-11-11T12:40:28.190Z,-8.45
2016-11-11T12:41:28.139Z,-8.4
2016-11-11T12:42:28.131Z,-8.42
2016-11-11T12:43:28.114Z,-8.6
2016-11-11T12:44:28.071Z,-8.61
2016-11-11T12:45:28.066Z,-8.58
2016-11-11T12:46:28.021Z,-8.58
2016-11-11T12:47:28.007Z,-8.66
2016-11-11T12:48:27.972Z,-8.66
2016-11-11T12:49:27.975Z,-8.67
2016-11-11T12:50:27.937Z,-8.76
2016-11-11T12:51:27.913Z,-8.68
2016-11-11T12:52:27.881Z,-8.78
2016-11-11T12:53:27.878Z,-8.58
2016-11-11T12:54:27.834Z,-8.6
2016-11-11T12:55:27.824Z,-8.56
2016-11-11T12:56:27.775Z,-8.67
2016-11-11T12:57:27.765Z,-8.58